Harvey Well — 3ETH2 — position and weather

sailwx.info

Track history (hours):
 
Tides and Currents Weather Stations Pressure Air Temp Water Temp Dewpoint Dewpoint Depression Visibility Wind Speed Wind Dir Waves Ship Positions

Harvey Well

Last reported at 2018-Feb-11 16:59 UTC. Time now 2018-Feb-24 06:29 UTC.
Position N 31°00' E 122°25'.
Warning: this ship's position is 12 days out of date.

Length 154 m; draft 5.7 m.

Type: Cargo ship. MMSI: 357876000.

Date/timePositionNaut miles runAvg speedWind from/ knotsBaromVisibWave heightAir tempDewpointWater temp
2018-Feb-11 16:59N 31°00' E 122°25'713.8
2018-Feb-11 16:28N 31°02' E 122°17'510.8
2018-Feb-11 16:01N 31°03' E 122°11'612.4
2018-Feb-11 15:30N 31°04' E 122°04'611.5
2018-Feb-11 15:00N 31°06' E 121°58'510.7
2018-Feb-11 14:30N 31°09' E 121°53'510.1
2018-Feb-11 14:00N 31°13' E 121°49'5 9.8
2018-Feb-11 13:29N 31°17' E 121°45'510.3
2018-Feb-11 12:58N 31°20' E 121°40'511.2
2018-Feb-11 12:30N 31°23' E 121°35'510.4
2018-Feb-11 12:00N 31°26' E 121°30'4 7.9
2018-Feb-11 11:30N 31°29' E 121°27'611.2
2018-Feb-11 11:00N 31°32' E 121°21'713.4
2018-Feb-11 10:30N 31°37' E 121°16'714.8
2018-Feb-11 10:00N 31°42' E 121°09'714.3
2018-Feb-11 09:29N 31°46' E 121°03'3110.9
2018-Feb-11 06:40N 32°01' E 120°31'210.9
2018-Feb-11 06:28N 32°02' E 120°29'  
2018-Feb-01 23:57N 32°02' E 120°26'4 9.1
2018-Feb-01 23:30N 32°02' E 120°31'37 9.0
2018-Feb-01 19:26N 31°43' E 121°08'612.1
2018-Feb-01 18:58N 31°39' E 121°13'2 3.5
2018-Feb-01 18:28N 31°39' E 121°15'0 0.0
2018-Feb-01 17:58N 31°39' E 121°15'0 0.0
2018-Feb-01 17:28N 31°39' E 121°15'  
Track history (hours):
 
Tides and Currents Weather Stations Pressure Air Temp Water Temp Dewpoint Dewpoint Depression Visibility Wind Speed Wind Dir Waves Ship Positions

Harvey Well

Last reported at 2018-Feb-11 16:59 UTC. Time now 2018-Feb-24 06:29 UTC.
Position N 31°00' E 122°25'.
Warning: this ship's position is 12 days out of date.

Length 154 m; draft 5.7 m.

Type: Cargo ship. MMSI: 357876000.

Date/timePositionNaut miles runAvg speedWind from/ knotsBaromVisibWave heightAir tempDewpointWater temp
2018-Feb-11 16:59N 31°00' E 122°25'713.8
2018-Feb-11 16:28N 31°02' E 122°17'510.8
2018-Feb-11 16:01N 31°03' E 122°11'612.4
2018-Feb-11 15:30N 31°04' E 122°04'611.5
2018-Feb-11 15:00N 31°06' E 121°58'510.7
2018-Feb-11 14:30N 31°09' E 121°53'510.1
2018-Feb-11 14:00N 31°13' E 121°49'5 9.8
2018-Feb-11 13:29N 31°17' E 121°45'510.3
2018-Feb-11 12:58N 31°20' E 121°40'511.2
2018-Feb-11 12:30N 31°23' E 121°35'510.4
2018-Feb-11 12:00N 31°26' E 121°30'4 7.9
2018-Feb-11 11:30N 31°29' E 121°27'611.2
2018-Feb-11 11:00N 31°32' E 121°21'713.4
2018-Feb-11 10:30N 31°37' E 121°16'714.8
2018-Feb-11 10:00N 31°42' E 121°09'714.3
2018-Feb-11 09:29N 31°46' E 121°03'3110.9
2018-Feb-11 06:40N 32°01' E 120°31'210.9
2018-Feb-11 06:28N 32°02' E 120°29'  
2018-Feb-01 23:57N 32°02' E 120°26'4 9.1
2018-Feb-01 23:30N 32°02' E 120°31'37 9.0
2018-Feb-01 19:26N 31°43' E 121°08'612.1
2018-Feb-01 18:58N 31°39' E 121°13'2 3.5
2018-Feb-01 18:28N 31°39' E 121°15'0 0.0
2018-Feb-01 17:58N 31°39' E 121°15'0 0.0
2018-Feb-01 17:28N 31°39' E 121°15'  

Dump ship's entire track history